Home > Products > Valid Products > TAF

000
FTUS43 KGRR 191900 AAA
TAFGRR
TAF AMD
KGRR 191921Z 1919/2018 14011KT P6SM BKN200
     FM201200 19011KT P6SM BKN150=



000
FTUS43 KGRR 191700
TAFBTL
TAF
KBTL 191740Z 1918/2018 11010KT P6SM SCT200
     FM200600 15006KT P6SM SKC=



000
FTUS43 KGRR 191700
TAFMKG
TAF
KMKG 191740Z 1918/2018 12012KT P6SM BKN250
     FM192100 16010KT P6SM SKC=



000
FTUS43 KGRR 191700
TAFLAN
TAF
KLAN 191740Z 1918/2018 08010KT P6SM SCT200
     FM200500 16005KT P6SM SKC=



000
FTUS43 KGRR 191700
TAFGRR
TAF
KGRR 191740Z 1918/2018 08011KT P6SM SCT200
     FM200000 14010KT P6SM SKC=



000
FTUS43 KGRR 191700
TAFAZO
TAF
KAZO 191740Z 1918/2018 12010KT P6SM SCT200
     FM200600 15006KT P6SM SKC=



000
FTUS43 KGRR 191700
TAFJXN
TAF
KJXN 191740Z 1918/2018 09010KT P6SM SCT200
     FM200000 13005KT P6SM SKC=



000
FTUS43 KGRR 191100
TAFLAN
TAF
KLAN 191140Z 1912/2012 05008KT P6SM SKC
     FM191400 10010KT P6SM SKC=



000
FTUS43 KGRR 191100
TAFGRR
TAF
KGRR 191140Z 1912/2012 07008KT P6SM SKC
     FM191400 09010KT P6SM SKC=



000
FTUS43 KGRR 191100
TAFBTL
TAF
KBTL 191140Z 1912/2012 05005KT P6SM SKC
     FM191400 11010KT P6SM SKC=



000
FTUS43 KGRR 191100
TAFMKG
TAF
KMKG 191140Z 1912/2012 07010KT P6SM SKC
     FM191400 12012KT P6SM SKC=



000
FTUS43 KGRR 191100
TAFJXN
TAF
KJXN 191140Z 1912/2012 05007KT P6SM SKC
     FM191400 09010KT P6SM SKC=



000
FTUS43 KGRR 191100
TAFAZO
TAF
KAZO 191140Z 1912/2012 06006KT P6SM SKC
     FM191400 12010KT P6SM SKC=



000
FTUS43 KGRR 190500
TAFJXN
TAF
KJXN 190540Z 1906/2006 32003KT P6SM SKC
     FM191400 09010KT P6SM SKC=



000
FTUS43 KGRR 190500
TAFLAN
TAF
KLAN 190540Z 1906/2006 03008KT P6SM SKC
     FM191400 10010KT P6SM SKC=



000
FTUS43 KGRR 190500
TAFBTL
TAF
KBTL 190540Z 1906/2006 34005KT P6SM SKC
     FM191400 11010KT P6SM SKC=



000
FTUS43 KGRR 190500
TAFGRR
TAF
KGRR 190540Z 1906/2006 36008KT P6SM SKC
     FM191400 09010KT P6SM SKC=



000
FTUS43 KGRR 190500
TAFAZO
TAF
KAZO 190540Z 1906/2006 34006KT P6SM SKC
     FM191400 12010KT P6SM SKC=



000
FTUS43 KGRR 190500
TAFMKG
TAF
KMKG 190540Z 1906/2006 01010KT P6SM SKC
     FM191400 12012KT P6SM SKC=



000
FTUS43 KGRR 190400 AAB
TAFLAN
TAF AMD
KLAN 190403Z 1904/1924 02009KT P6SM SKC
     FM190600 05008KT P6SM SKC
     FM191400 10010KT P6SM SKC=



000
FTUS43 KGRR 190300 AAA
TAFLAN
TAF AMD
KLAN 190321Z 1903/1924 03014G22KT P6SM SKC
     FM190600 05008KT P6SM SKC
     FM191400 10010KT P6SM SKC=



000
FTUS43 KGRR 182300
TAFGRR
TAF
KGRR 182329Z 1900/1924 30010KT P6SM FEW050
     FM190300 02005KT P6SM SKC
     FM191400 09010KT P6SM SKC=



000
FTUS43 KGRR 182300
TAFBTL
TAF
KBTL 182329Z 1900/1924 33012KT P6SM SKC
     FM190300 05005KT P6SM SKC
     FM191400 11010KT P6SM SKC=



000
FTUS43 KGRR 182300
TAFJXN
TAF
KJXN 182329Z 1900/1924 32008KT P6SM FEW070
     FM190300 04005KT P6SM SKC
     FM191400 09010KT P6SM SKC=



000
FTUS43 KGRR 182300
TAFAZO
TAF
KAZO 182329Z 1900/1924 32012KT P6SM SKC
     FM190300 05005KT P6SM SKC
     FM191400 12010KT P6SM SKC=



000
FTUS43 KGRR 182300
TAFMKG
TAF
KMKG 182329Z 1900/1924 29007KT P6SM FEW200
     FM190300 05006KT P6SM SKC
     FM191400 12012KT P6SM SKC=



000
FTUS43 KGRR 182300
TAFLAN
TAF
KLAN 182329Z 1900/1924 29011KT P6SM FEW060
     FM190300 04005KT P6SM SKC
     FM191400 10010KT P6SM SKC=



000
FTUS43 KGRR 181700
TAFLAN
TAF
KLAN 181740Z 1818/1918 32010KT P6SM BKN050
     FM190000 36005KT P6SM SKC=



000
FTUS43 KGRR 181700
TAFAZO
TAF
KAZO 181740Z 1818/1918 32010KT P6SM SCT050
     FM190000 36005KT P6SM SKC=



000
FTUS43 KGRR 181700
TAFJXN
TAF
KJXN 181740Z 1818/1918 32010KT P6SM BKN045
     FM190000 36005KT P6SM SKC=



000
FTUS43 KGRR 181700
TAFBTL
TAF
KBTL 181740Z 1818/1918 32010KT P6SM BKN050
     FM190000 36005KT P6SM SKC=



000
FTUS43 KGRR 181700
TAFMKG
TAF
KMKG 181740Z 1818/1918 32008KT P6SM SCT045
     FM190000 03005KT P6SM SKC=



000
FTUS43 KGRR 181700
TAFGRR
TAF
KGRR 181740Z 1818/1918 32012KT P6SM BKN050
     FM190100 02005KT P6SM SKC=



000
FTUS43 KGRR 181300 AAA
TAFJXN
TAF AMD
KJXN 181325Z 1813/1912 33004KT 3SM BR OVC070
     FM181500 34008KT P6SM SCT035=



000
FTUS43 KGRR 181300 AAA
TAFBTL
TAF AMD
KBTL 181324Z 1813/1912 35005KT 6SM HZ BKN070
     FM181400 33010KT P6SM SCT040=



000
FTUS43 KGRR 181300 AAA
TAFAZO
TAF AMD
KAZO 181323Z 1813/1912 35005KT P6SM BKN070
     FM181400 33010KT P6SM SCT040=



000
FTUS43 KGRR 181100
TAFJXN
TAF
KJXN 181140Z 1812/1912 33004KT 5SM -SHRA OVC025
     FM181400 34008KT P6SM SCT035=



000
FTUS43 KGRR 181100
TAFAZO
TAF
KAZO 181140Z 1812/1912 35005KT 5SM -RA BR BKN050
     FM181400 33010KT P6SM SCT040=



000
FTUS43 KGRR 181100
TAFLAN
TAF
KLAN 181140Z 1812/1912 27003KT 3SM BR VCSH BKN070
     FM181400 34006KT P6SM SCT035=



000
FTUS43 KGRR 181100
TAFBTL
TAF
KBTL 181140Z 1812/1912 35005KT 4SM BR BKN060
      TEMPO 1812/1814 2SM BR
     FM181400 33010KT P6SM SCT040=



000
FTUS43 KGRR 181100
TAFGRR
TAF
KGRR 181140Z 1812/1912 35005KT P6SM SCT050
     FM181400 32010KT P6SM SCT040=



000
FTUS43 KGRR 181100
TAFMKG
TAF
KMKG 181140Z 1812/1912 35005KT P6SM SCT050
     FM181400 32010KT P6SM SKC=



000
FTUS43 KGRR 181100 AAA
TAFBTL
TAF AMD
KBTL 181123Z 1811/1906 32003KT 2SM BR OVC060
     FM181400 34012KT P6SM SCT035=



000
FTUS43 KGRR 180900 AAA
TAFLAN
TAF AMD
KLAN 180917Z 1809/1906 27003KT 5SM BR VCSH BKN070
     FM181400 34006KT P6SM SCT035=



000
FTUS43 KGRR 180900 AAA
TAFBTL
TAF AMD
KBTL 180916Z 1809/1906 32003KT 5SM -RA BR OVC040
     FM181000 33004KT P6SM VCSH OVC035
     FM181400 34012KT P6SM SCT035=



000
FTUS43 KGRR 180500
TAFAZO
TAF
KAZO 180540Z 1806/1906 34004KT P6SM BKN090
     FM180800 32003KT P6SM OVC040
     FM181000 33004KT P6SM VCSH OVC025
     FM181300 34008KT P6SM OVC035
     FM181600 33012KT P6SM SCT040=



000
FTUS43 KGRR 180500
TAFGRR
TAF
KGRR 180540Z 1806/1906 29005KT P6SM BKN200
     FM180800 33005KT P6SM VCSH OVC040
     FM181400 31012KT P6SM SCT035=



000
FTUS43 KGRR 180500
TAFLAN
TAF
KLAN 180540Z 1806/1906 27005KT P6SM BKN120
     FM180800 29003KT P6SM VCSH OVC060
     FM180900 00000KT P6SM -RA OVC050
     FM181400 34006KT P6SM SCT035=



000
FTUS43 KGRR 180500
TAFBTL
TAF
KBTL 180540Z 1806/1906 00000KT P6SM BKN090
     FM180800 32003KT P6SM OVC040
     FM181000 33004KT P6SM VCSH OVC025
     FM181400 34012KT P6SM SCT035=



000
FTUS43 KGRR 180500
TAFJXN
TAF
KJXN 180540Z 1806/1906 25004KT P6SM SCT040 BKN100
     FM181000 33004KT 5SM -SHRA OVC025
     FM181400 34008KT P6SM SCT035=



000
FTUS43 KGRR 180500
TAFMKG
TAF
KMKG 180540Z 1806/1906 34005KT P6SM BKN200
     FM181000 36005KT P6SM OVC040
     FM181400 32012KT P6SM SKC=



000
FTUS43 KGRR 172300
TAFJXN
TAF
KJXN 172340Z 1800/1824 21013KT P6SM SCT120 BKN250
     FM180100 28006KT P6SM SCT035 OVC120
     FM180700 26005KT 4SM -RA BR OVC025
     FM181300 31006KT P6SM BKN050
     FM181600 31008KT P6SM SCT035=



000
FTUS43 KGRR 172300
TAFGRR
TAF
KGRR 172340Z 1800/1824 27012KT P6SM SCT140 BKN250
     FM180200 28005KT P6SM SCT035 OVC120
     FM180800 31005KT P6SM VCSH OVC035
     FM181400 31010KT P6SM SCT035=



000
FTUS43 KGRR 172300
TAFAZO
TAF
KAZO 172340Z 1800/1824 30009KT P6SM SCT140 BKN250
     FM180100 26006KT P6SM SCT035 OVC120
     FM180700 32005KT 4SM -RA BR OVC025
     FM181500 31007KT P6SM OVC050
     FM181800 30010KT P6SM BKN250=



000
FTUS43 KGRR 172300
TAFLAN
TAF
KLAN 172340Z 1800/1824 21013KT P6SM FEW120 BKN250
     FM180100 28006KT P6SM SCT035 OVC120
     FM180800 25005KT 4SM -RA BR OVC025
     FM181300 31006KT P6SM BKN050
     FM181600 31010KT P6SM SCT035=



000
FTUS43 KGRR 172300
TAFBTL
TAF
KBTL 172340Z 1800/1824 23012KT P6SM SCT140 BKN250
     FM180200 26006KT P6SM SCT035 OVC120
     FM180800 32005KT 4SM -RA BR OVC025
     FM181500 31007KT P6SM OVC050
     FM181800 30010KT P6SM BKN250=



000
FTUS43 KGRR 172300
TAFMKG
TAF
KMKG 172340Z 1800/1824 25006KT P6SM BKN210
     FM180200 29004KT P6SM BKN150 BKN250
     FM181000 36005KT P6SM OVC035
     FM181600 32010KT P6SM SKC=



000
FTUS43 KGRR 172200 AAA
TAFLAN
TAF AMD
KLAN 172218Z 1722/1818 24016G26KT P6SM FEW080 BKN250
     FM180000 25008KT P6SM SCT035 SCT150 BKN250
     FM180700 26005KT 4SM -RA BR OVC025
     FM181600 31008KT P6SM SCT035=



000
FTUS43 KGRR 172200 AAA
TAFJXN
TAF AMD
KJXN 172218Z 1722/1818 23012G20KT P6SM SCT150 BKN250
     FM180000 24008KT P6SM SCT035 SCT150 BKN250
     FM180700 26005KT 4SM -RA BR OVC025
     FM181600 31008KT P6SM SCT035=



000
FTUS43 KGRR 172200 AAA
TAFBTL
TAF AMD
KBTL 172216Z 1722/1818 23012G20KT P6SM SCT160 BKN250
     FM180000 22008KT P6SM SCT035
     FM180600 26005KT 4SM -RA BR OVC025
     FM181500 31008KT P6SM SCT035=



000
FTUS43 KGRR 172200 AAA
TAFGRR
TAF AMD
KGRR 172214Z 1722/1818 27016KT P6SM FEW070 BKN250
     FM180000 25008KT P6SM SCT035
     FM180600 26005KT P6SM VCSH OVC035
     FM181200 31008KT P6SM SCT035=



000
FTUS43 KGRR 172200 AAA
TAFMKG
TAF AMD
KMKG 172214Z 1722/1818 24008KT P6SM BKN210
     FM180200 29004KT P6SM BKN150 BKN250
     FM181000 36005KT P6SM OVC035
     FM181600 32010KT P6SM SKC=



000
FTUS43 KGRR 171700 RRA
TAFLAN
TAF
KLAN 171746Z 1718/1818 17012G20KT P6SM FEW100
     FM180000 22008KT P6SM SCT035
     FM180700 26005KT 4SM -RA BR OVC025
     FM181600 31008KT P6SM SCT035=



000
FTUS43 KGRR 171700 RRA
TAFGRR
TAF
KGRR 171746Z 1718/1818 20012G20KT P6SM SCT080
     FM180000 25008KT P6SM SCT035
     FM180600 26005KT P6SM VCSH OVC035
     FM181200 31008KT P6SM SCT035=



000
FTUS43 KGRR 171700 RRA
TAFJXN
TAF
KJXN 171746Z 1718/1818 19012G20KT P6SM FEW100
     FM180000 22008KT P6SM SCT035
     FM180700 26005KT 4SM -RA BR OVC025
     FM181600 31008KT P6SM SCT035=



000
FTUS43 KGRR 171700 RRA
TAFMKG
TAF
KMKG 171746Z 1718/1818 19018G28KT P6SM SCT080
     FM172000 23010G18KT P6SM FEW035 SCT080
     FM180000 25008KT P6SM SCT035
     FM180800 33008KT P6SM SCT035=



000
FTUS43 KGRR 171700 RRA
TAFBTL
TAF
KBTL 171746Z 1718/1818 19012G20KT P6SM FEW100
     FM180000 22008KT P6SM SCT035
     FM180600 26005KT 4SM -RA BR OVC025
     FM181500 31008KT P6SM SCT035=



000
FTUS43 KGRR 171700 RRA
TAFAZO
TAF
KAZO 171746Z 1718/1818 20012G20KT P6SM SCT080
     FM180000 23008KT P6SM SCT035
     FM180600 26005KT 4SM -RA BR OVC025
     FM181400 31008KT P6SM SCT035=



000
FTUS43 KGRR 171100
TAFBTL
TAF
KBTL 171140Z 1712/1812 14011KT P6SM BKN200
     FM171800 18014G22KT P6SM BKN090
     FM180000 24005KT P6SM BKN200=



000
FTUS43 KGRR 171100
TAFJXN
TAF
KJXN 171140Z 1712/1812 14010KT P6SM BKN200
     FM171600 18014G22KT P6SM BKN090
     FM180100 24005KT P6SM OVC100=



000
FTUS43 KGRR 171100
TAFLAN
TAF
KLAN 171140Z 1712/1812 14011KT P6SM BKN200
     FM171600 18014G22KT P6SM BKN090
     FM180100 23005KT P6SM OVC100=



000
FTUS43 KGRR 171100
TAFAZO
TAF
KAZO 171140Z 1712/1812 14011KT P6SM BKN200
     FM171800 18014G22KT P6SM BKN090
     FM180000 24005KT P6SM BKN200=



000
FTUS43 KGRR 171100
TAFMKG
TAF
KMKG 171140Z 1712/1812 14012G20KT P6SM BKN120
     FM171800 21015KT P6SM OVC060
     FM180000 24005KT P6SM BKN200=



000
FTUS43 KGRR 171100
TAFGRR
TAF
KGRR 171140Z 1712/1812 12012KT P6SM BKN120
     FM171800 18014G22KT P6SM BKN090
     FM180000 24005KT P6SM BKN200=



000
FTUS43 KGRR 170500
TAFBTL
TAF
KBTL 170540Z 1706/1806 14011KT P6SM BKN200
     FM171800 18014G22KT P6SM BKN090
     FM180000 24005KT P6SM BKN250=



000
FTUS43 KGRR 170500
TAFLAN
TAF
KLAN 170540Z 1706/1806 14012KT P6SM BKN200
     FM171600 18014G22KT P6SM BKN090
     FM180100 20005KT P6SM OVC100=



000
FTUS43 KGRR 170500
TAFAZO
TAF
KAZO 170540Z 1706/1806 14011KT P6SM BKN200
     FM171800 18014G22KT P6SM BKN090
     FM180000 24005KT P6SM BKN250=



000
FTUS43 KGRR 170500
TAFLAN
TAF
KLAN 170540Z 1706/1806 11012KT P6SM BKN090
     FM171600 18014G22KT P6SM BKN090
     FM180100 20005KT P6SM OVC100=



000
FTUS43 KGRR 170500
TAFAZO
TAF
KAZO 170540Z 1706/1806 13011KT P6SM BKN090
     FM171800 18014G22KT P6SM BKN090
     FM180000 24005KT P6SM BKN250=



000
FTUS43 KGRR 170500
TAFJXN
TAF
KJXN 170540Z 1706/1806 13010KT P6SM BKN090
     FM171600 18014G22KT P6SM BKN090
     FM180100 20005KT P6SM OVC100=



000
FTUS43 KGRR 170500
TAFGRR
TAF
KGRR 170540Z 1706/1806 12011KT P6SM BKN090
     FM171800 18014G22KT P6SM BKN090
     FM180000 24005KT P6SM BKN250=



000
FTUS43 KGRR 170500
TAFMKG
TAF
KMKG 170540Z 1706/1806 12010G18KT P6SM BKN200
     FM171000 15012G20KT P6SM SCT040 BKN100
     FM171800 21015KT P6SM OVC070
     FM180000 24005KT P6SM BKN250=



000
FTUS43 KGRR 162300
TAFAZO
TAF
KAZO 162340Z 1700/1724 15010G16KT P6SM BKN200
     FM170100 13011KT P6SM BKN090
     FM171800 18014G22KT P6SM BKN090=



000
FTUS43 KGRR 162300
TAFGRR
TAF
KGRR 162340Z 1700/1724 13012G20KT P6SM BKN200
     FM170100 12011KT P6SM BKN090
     FM171800 18014G22KT P6SM BKN090=



000
FTUS43 KGRR 162300
TAFLAN
TAF
KLAN 162340Z 1700/1724 17008G18KT P6SM BKN200
     FM170100 13010KT P6SM BKN090
     FM171600 18014G22KT P6SM BKN090=



000
FTUS43 KGRR 162300
TAFJXN
TAF
KJXN 162340Z 1700/1724 13010KT P6SM BKN090
     FM171600 18014G22KT P6SM BKN090=



000
FTUS43 KGRR 162300
TAFBTL
TAF
KBTL 162340Z 1700/1724 15010G16KT P6SM BKN200
     FM170100 13011KT P6SM BKN090
     FM171800 18014G22KT P6SM BKN090=



000
FTUS43 KGRR 162300
TAFMKG
TAF
KMKG 162340Z 1700/1724 14010G18KT P6SM BKN200
     FM171000 15012G20KT P6SM SCT040 BKN100
     FM171800 21012KT P6SM OVC070=



    US Dept of Commerce
    National Oceanic and Atmospheric Administration
    National Weather Service
    1325 East West Highway
    Silver Spring, MD 20910
    Page Author: NWS Internet Services Team
Disclaimer
Information Quality
Credits
Glossary
Privacy Policy
Freedom of Information Act (FOIA)
About Us
Career Opportunities